createdAt,value
2019-05-30T00:02:14.384Z,1.20
2019-05-30T00:04:42.583Z,0.78
2019-05-30T00:07:11.398Z,1.00
2019-05-30T00:09:39.712Z,0.88
2019-05-30T00:12:07.945Z,1.45
2019-05-30T00:14:36.131Z,1.02
2019-05-30T00:17:05.137Z,1.40
2019-05-30T00:19:34.088Z,0.85
2019-05-30T00:22:03.890Z,0.60
2019-05-30T00:24:32.313Z,1.47
2019-05-30T00:27:00.461Z,0.65
2019-05-30T00:29:28.671Z,0.82
2019-05-30T00:31:57.459Z,0.72
2019-05-30T00:34:25.928Z,0.80
2019-05-30T00:36:54.099Z,0.40
2019-05-30T00:39:22.272Z,0.72
2019-05-30T00:41:50.632Z,1.22
2019-05-30T00:44:18.868Z,0.70
2019-05-30T00:46:47.036Z,0.50
2019-05-30T00:49:15.228Z,0.60
2019-05-30T00:51:43.452Z,0.60
2019-05-30T00:54:11.622Z,0.60
2019-05-30T00:56:39.821Z,0.65
2019-05-30T00:59:07.999Z,0.40
2019-05-30T01:01:36.213Z,0.40
2019-05-30T01:04:04.989Z,0.40
2019-05-30T01:06:33.135Z,0.60
2019-05-30T01:09:01.350Z,0.60
2019-05-30T01:11:29.515Z,0.55
2019-05-30T01:13:58.921Z,0.40
2019-05-30T01:16:27.210Z,0.70
2019-05-30T01:18:56.771Z,0.40
2019-05-30T01:21:25.464Z,0.37
2019-05-30T01:23:53.689Z,0.37
2019-05-30T01:26:21.969Z,0.47
2019-05-30T01:28:50.175Z,0.60
2019-05-30T01:31:18.412Z,0.40
2019-05-30T01:33:46.639Z,0.40
2019-05-30T01:36:14.784Z,0.70
2019-05-30T01:38:43.004Z,0.50
2019-05-30T01:41:11.173Z,0.50
2019-05-30T01:43:39.560Z,0.70
2019-05-30T01:46:08.389Z,0.60
2019-05-30T01:48:36.655Z,0.50
2019-05-30T01:51:04.989Z,0.40
2019-05-30T01:53:33.160Z,0.65
2019-05-30T01:56:02.596Z,0.45
2019-05-30T01:58:30.889Z,0.57
2019-05-30T02:01:13.585Z,0.50
2019-05-30T02:03:29.018Z,0.37
2019-05-30T02:05:57.289Z,0.50
2019-05-30T02:08:25.525Z,0.57
2019-05-30T02:10:53.783Z,0.50
2019-05-30T02:13:22.133Z,0.30
2019-05-30T02:15:50.826Z,0.50
2019-05-30T02:18:19.008Z,0.60
2019-05-30T02:20:47.276Z,0.40
2019-05-30T02:23:15.464Z,0.80
2019-05-30T02:25:43.645Z,0.60
2019-05-30T02:28:11.841Z,0.80
2019-05-30T02:30:40.192Z,0.60
2019-05-30T02:33:10.526Z,0.70
2019-05-30T02:35:38.411Z,0.50
2019-05-30T02:38:07.382Z,0.40
2019-05-30T02:40:36.121Z,0.50
2019-05-30T02:43:05.763Z,0.50
2019-05-30T02:45:34.536Z,0.68
2019-05-30T02:48:03.255Z,0.60
2019-05-30T02:50:32.661Z,0.53
2019-05-30T02:53:01.236Z,0.53
2019-05-30T02:55:29.412Z,0.98
2019-05-30T02:57:57.640Z,0.98
2019-05-30T03:00:34.215Z,0.95
2019-05-30T03:03:03.954Z,0.78
2019-05-30T03:05:32.299Z,0.80
2019-05-30T03:08:02.088Z,0.85
2019-05-30T03:12:59.023Z,0.53
2019-05-30T03:15:28.002Z,0.90
2019-05-30T03:17:56.229Z,0.90
2019-05-30T03:20:24.500Z,0.78
2019-05-30T03:22:52.708Z,0.68
2019-05-30T03:25:20.898Z,0.90
2019-05-30T03:27:49.144Z,1.12
2019-05-30T03:30:26.800Z,1.07
2019-05-30T03:33:05.395Z,0.80
2019-05-30T03:35:27.529Z,1.17
2019-05-30T03:37:47.993Z,0.80
2019-05-30T03:40:18.256Z,0.93
2019-05-30T03:42:46.155Z,1.42
2019-05-30T03:45:16.592Z,0.68
2019-05-30T03:47:48.106Z,1.00
2019-05-30T03:50:18.455Z,1.10
2019-05-30T03:52:46.710Z,0.90
2019-05-30T03:55:17.568Z,1.30
2019-05-30T03:57:50.642Z,1.10
2019-05-30T04:00:27.924Z,1.50
2019-05-30T04:03:02.017Z,1.40
2019-05-30T04:05:35.046Z,0.80
2019-05-30T04:08:06.942Z,1.85
2019-05-30T04:10:39.075Z,1.65
2019-05-30T04:13:31.315Z,1.85
2019-05-30T04:15:59.528Z,1.45
2019-05-30T04:18:27.675Z,1.50
2019-05-30T04:20:55.821Z,1.72
2019-05-30T04:23:24.046Z,1.60
2019-05-30T04:25:52.222Z,1.35
2019-05-30T04:28:20.406Z,1.40
2019-05-30T04:30:48.609Z,1.67
2019-05-30T04:33:31.649Z,1.57
2019-05-30T04:35:46.674Z,1.72
2019-05-30T04:38:14.944Z,1.70
2019-05-30T04:40:43.337Z,1.62
2019-05-30T04:43:13.338Z,1.40
2019-05-30T04:45:41.446Z,1.87
2019-05-30T04:48:09.867Z,2.10
2019-05-30T04:50:37.991Z,1.60
2019-05-30T04:53:06.203Z,1.72
2019-05-30T04:55:34.388Z,1.70
2019-05-30T04:58:02.677Z,1.77
2019-05-30T05:00:30.816Z,1.52
2019-05-30T05:02:58.940Z,1.90
2019-05-30T05:05:27.244Z,1.60
2019-05-30T05:07:55.375Z,1.60
2019-05-30T05:10:23.642Z,1.90
2019-05-30T05:12:51.799Z,1.40
2019-05-30T05:15:20.685Z,1.40
2019-05-30T05:17:49.008Z,1.70
2019-05-30T05:20:17.349Z,1.40
2019-05-30T05:22:45.570Z,1.40
2019-05-30T05:25:15.399Z,1.57
2019-05-30T05:27:43.783Z,1.52
2019-05-30T05:30:13.982Z,1.37
2019-05-30T05:32:42.158Z,1.52
2019-05-30T05:35:11.629Z,1.60
2019-05-30T05:37:39.961Z,1.30
2019-05-30T05:40:08.669Z,1.20
2019-05-30T05:42:36.876Z,1.80
2019-05-30T05:45:06.067Z,1.45
2019-05-30T05:47:34.241Z,1.50
2019-05-30T05:50:02.412Z,1.57
2019-05-30T05:52:30.592Z,1.60
2019-05-30T05:54:58.797Z,1.60
2019-05-30T05:57:26.988Z,1.20
2019-05-30T05:59:55.314Z,1.30
2019-05-30T06:02:23.509Z,1.50
2019-05-30T06:04:51.769Z,1.40
2019-05-30T06:07:20.293Z,1.00
2019-05-30T06:09:48.545Z,1.17
2019-05-30T06:12:17.574Z,1.35
2019-05-30T06:14:45.946Z,1.02
2019-05-30T06:17:14.272Z,1.20
2019-05-30T06:19:46.385Z,0.80
2019-05-30T06:22:12.355Z,1.27
2019-05-30T06:24:40.513Z,1.30
2019-05-30T06:27:08.772Z,1.42
2019-05-30T06:29:36.990Z,1.30
2019-05-30T06:32:05.185Z,0.90
2019-05-30T06:34:39.301Z,1.30
2019-05-30T06:37:03.319Z,1.10
2019-05-30T06:39:31.590Z,0.78
2019-05-30T06:41:59.798Z,1.20
2019-05-30T06:44:28.155Z,1.50
2019-05-30T06:46:56.322Z,1.22
2019-05-30T06:49:24.800Z,1.25
2019-05-30T06:51:53.164Z,0.95
2019-05-30T06:54:21.860Z,1.10
2019-05-30T06:56:51.117Z,1.00
2019-05-30T06:59:19.333Z,1.15
2019-05-30T07:01:47.494Z,1.02
2019-05-30T07:04:16.212Z,1.15
2019-05-30T07:06:44.986Z,1.00
2019-05-30T07:09:13.429Z,0.82
2019-05-30T07:11:41.585Z,0.75
2019-05-30T07:14:09.804Z,0.90
2019-05-30T07:16:38.061Z,1.22
2019-05-30T07:19:06.292Z,0.93
2019-05-30T07:21:34.482Z,1.20
2019-05-30T07:24:02.681Z,0.60
2019-05-30T07:26:31.908Z,0.90
2019-05-30T07:29:00.879Z,1.15
2019-05-30T07:31:30.226Z,1.10
2019-05-30T07:33:58.458Z,1.12
2019-05-30T07:36:26.686Z,0.90
2019-05-30T07:38:54.843Z,0.78
2019-05-30T07:41:23.125Z,1.00
2019-05-30T07:43:52.594Z,0.82
2019-05-30T07:46:20.809Z,0.88
2019-05-30T07:48:49.056Z,1.00
2019-05-30T07:51:17.844Z,1.20
2019-05-30T07:53:46.000Z,0.90
2019-05-30T07:56:14.199Z,0.60
2019-05-30T07:58:42.372Z,1.00
2019-05-30T08:01:10.539Z,0.98
2019-05-30T08:03:38.949Z,0.78
2019-05-30T08:06:07.028Z,0.60
2019-05-30T08:08:36.136Z,0.95
2019-05-30T08:11:09.387Z,0.75
2019-05-30T08:13:35.270Z,0.80
2019-05-30T08:16:03.632Z,1.07
2019-05-30T08:18:31.877Z,1.10
2019-05-30T08:21:00.115Z,0.75
2019-05-30T08:23:28.328Z,1.07
2019-05-30T08:25:56.658Z,0.70
2019-05-30T08:28:24.842Z,0.70
2019-05-30T08:30:56.696Z,0.80
2019-05-30T08:33:23.059Z,0.90
2019-05-30T08:35:51.304Z,0.93
2019-05-30T08:38:19.588Z,0.88
2019-05-30T08:40:47.890Z,0.47
2019-05-30T08:43:16.112Z,0.90
2019-05-30T08:45:44.541Z,0.55
2019-05-30T08:48:12.695Z,0.80
2019-05-30T08:50:44.257Z,0.80
2019-05-30T08:55:38.605Z,0.82
2019-05-30T08:58:06.949Z,0.68
2019-05-30T09:00:35.177Z,0.60
2019-05-30T09:03:04.788Z,0.60
2019-05-30T09:05:33.059Z,0.70
2019-05-30T09:08:01.395Z,0.90
2019-05-30T09:10:29.570Z,0.50
2019-05-30T09:12:57.888Z,0.70
2019-05-30T09:15:26.187Z,0.50
2019-05-30T09:17:54.374Z,0.70
2019-05-30T09:20:22.720Z,0.72
2019-05-30T09:22:50.889Z,0.60
2019-05-30T09:25:19.613Z,0.70
2019-05-30T09:27:48.363Z,0.60
2019-05-30T09:30:18.865Z,0.82
2019-05-30T09:32:47.220Z,1.10
2019-05-30T09:35:17.331Z,0.60
2019-05-30T09:37:46.076Z,0.90
2019-05-30T09:40:15.752Z,1.23
2019-05-30T09:42:44.749Z,0.85
2019-05-30T09:47:46.641Z,0.70
2019-05-30T09:50:13.998Z,0.60
2019-05-30T09:52:43.508Z,0.53
2019-05-30T09:55:12.569Z,0.40
2019-05-30T09:57:42.405Z,0.50
2019-05-30T10:02:38.862Z,0.55
2019-05-30T10:05:07.959Z,0.60
2019-05-30T10:07:36.243Z,0.73
2019-05-30T10:10:05.134Z,0.70
2019-05-30T10:12:33.370Z,0.65
2019-05-30T10:15:01.652Z,0.50
2019-05-30T10:17:29.872Z,1.10
2019-05-30T10:19:58.014Z,0.65
2019-05-30T10:22:26.186Z,0.70
2019-05-30T10:24:54.442Z,0.62
2019-05-30T10:27:22.652Z,0.53
2019-05-30T10:29:51.285Z,0.55
2019-05-30T10:32:19.457Z,0.70
2019-05-30T10:34:47.981Z,0.70
2019-05-30T10:37:16.283Z,0.50
2019-05-30T10:39:45.563Z,0.80
2019-05-30T10:42:14.177Z,2.15
2019-05-30T10:44:42.508Z,0.50
2019-05-30T10:47:10.790Z,0.53
2019-05-30T10:49:39.049Z,0.40
2019-05-30T10:52:07.290Z,0.60
2019-05-30T10:54:35.564Z,0.42
2019-05-30T10:57:03.915Z,0.55
2019-05-30T10:59:32.138Z,0.50
2019-05-30T11:02:00.422Z,0.55
2019-05-30T11:04:28.695Z,0.40
2019-05-30T11:07:11.743Z,0.30
2019-05-30T11:09:41.845Z,0.30
2019-05-30T11:12:10.089Z,0.33
2019-05-30T11:14:39.017Z,0.30
2019-05-30T11:17:07.350Z,0.30
2019-05-30T11:19:35.793Z,0.33
2019-05-30T11:22:04.084Z,0.47
2019-05-30T11:24:32.414Z,0.40
2019-05-30T11:27:00.641Z,0.50
2019-05-30T11:29:28.830Z,0.40
2019-05-30T11:31:57.159Z,0.40
2019-05-30T11:34:25.338Z,0.42
2019-05-30T11:36:53.695Z,0.30
2019-05-30T11:39:21.870Z,0.35
2019-05-30T11:41:51.186Z,0.37
2019-05-30T11:44:19.451Z,0.37
2019-05-30T11:46:47.735Z,0.30
2019-05-30T11:49:15.945Z,0.40
2019-05-30T11:51:44.244Z,0.23
2019-05-30T11:54:12.470Z,0.30
2019-05-30T11:56:40.695Z,0.30
2019-05-30T11:59:08.860Z,0.28
2019-05-30T12:01:37.069Z,0.30
2019-05-30T12:04:05.310Z,0.30
2019-05-30T12:06:33.446Z,0.30
2019-05-30T12:09:01.836Z,0.37
2019-05-30T12:11:30.028Z,0.13
2019-05-30T12:13:59.415Z,0.30
2019-05-30T12:16:27.715Z,0.35
2019-05-30T12:18:55.926Z,0.30
2019-05-30T12:21:24.200Z,0.40
2019-05-30T12:23:52.334Z,0.50
2019-05-30T12:26:20.590Z,0.45
2019-05-30T12:28:48.791Z,0.40
2019-05-30T12:31:17.112Z,0.53
2019-05-30T12:33:45.293Z,0.20
2019-05-30T12:36:13.647Z,0.33
2019-05-30T12:38:41.816Z,0.40
2019-05-30T12:41:10.189Z,0.40
2019-05-30T12:43:38.450Z,0.42
2019-05-30T12:46:06.669Z,0.42
2019-05-30T12:48:34.897Z,0.35
2019-05-30T12:51:03.537Z,0.15
2019-05-30T12:53:31.791Z,0.30
2019-05-30T12:56:00.561Z,0.40
2019-05-30T12:58:28.897Z,0.30
2019-05-30T13:00:57.159Z,0.42
2019-05-30T13:03:25.423Z,0.42
2019-05-30T13:05:55.003Z,0.30
2019-05-30T13:08:23.358Z,0.50
2019-05-30T13:10:51.828Z,0.30
2019-05-30T13:13:20.066Z,0.50
2019-05-30T13:15:48.442Z,0.50
2019-05-30T13:18:16.748Z,0.37
2019-05-30T13:20:44.914Z,0.50
2019-05-30T13:23:13.163Z,0.50
2019-05-30T13:25:41.397Z,0.37
2019-05-30T13:28:09.584Z,0.35
2019-05-30T13:30:37.873Z,0.45
2019-05-30T13:33:08.814Z,0.45
2019-05-30T13:35:37.049Z,0.50
2019-05-30T13:38:05.413Z,0.50
2019-05-30T13:40:33.663Z,0.35
2019-05-30T13:43:02.019Z,0.40
2019-05-30T13:45:30.341Z,0.30
2019-05-30T13:47:58.568Z,0.42
2019-05-30T13:50:26.903Z,0.40
2019-05-30T13:52:55.165Z,0.47
2019-05-30T13:55:23.407Z,0.40
2019-05-30T13:57:51.606Z,0.50
2019-05-30T14:00:21.225Z,0.50
2019-05-30T14:02:49.410Z,0.30
2019-05-30T14:05:18.235Z,0.55
2019-05-30T14:07:46.401Z,0.42
2019-05-30T14:10:14.825Z,0.40
2019-05-30T14:12:43.004Z,0.47
2019-05-30T14:15:14.326Z,0.60
2019-05-30T14:17:41.889Z,0.50
2019-05-30T14:20:11.522Z,0.60
2019-05-30T14:22:40.060Z,0.88
2019-05-30T14:25:09.693Z,0.60
2019-05-30T14:27:37.986Z,0.70
2019-05-30T14:30:06.900Z,0.60
2019-05-30T14:32:35.138Z,0.30
2019-05-30T14:35:04.118Z,0.80
2019-05-30T14:37:32.292Z,0.50
2019-05-30T14:40:00.546Z,0.60
2019-05-30T14:42:28.841Z,0.53
2019-05-30T14:44:57.124Z,0.80
2019-05-30T14:47:25.349Z,0.60
2019-05-30T14:49:53.509Z,0.62
2019-05-30T14:52:21.688Z,0.70
2019-05-30T14:54:49.893Z,0.98
2019-05-30T14:57:18.106Z,0.78
2019-05-30T14:59:46.395Z,0.88
2019-05-30T15:02:14.654Z,0.80
2019-05-30T15:04:42.868Z,0.70
2019-05-30T15:07:11.404Z,0.70
2019-05-30T15:09:42.499Z,0.68
2019-05-30T15:14:36.906Z,0.45
2019-05-30T15:17:05.920Z,0.80
2019-05-30T15:19:34.372Z,0.87
2019-05-30T15:22:02.570Z,0.50
2019-05-30T15:24:30.758Z,0.90
2019-05-30T15:26:58.937Z,0.60
2019-05-30T15:29:27.256Z,0.72
2019-05-30T15:31:55.498Z,0.80
2019-05-30T15:34:23.702Z,0.65
2019-05-30T15:36:51.891Z,0.55
2019-05-30T15:39:32.464Z,0.33
2019-05-30T15:41:50.023Z,0.57
2019-05-30T15:44:18.269Z,0.88
2019-05-30T15:46:46.534Z,0.98
2019-05-30T15:49:16.376Z,0.98
2019-05-30T15:51:44.688Z,0.70
2019-05-30T15:54:12.994Z,1.17
2019-05-30T15:56:42.431Z,1.22
2019-05-30T15:59:11.616Z,1.00
2019-05-30T16:01:39.919Z,0.95
2019-05-30T16:04:08.167Z,1.07
2019-05-30T16:06:36.354Z,0.95
2019-05-30T16:09:06.363Z,0.93
2019-05-30T16:11:34.794Z,1.60
2019-05-30T16:14:03.067Z,1.27
2019-05-30T16:16:39.382Z,0.98
2019-05-30T16:21:30.167Z,1.40
2019-05-30T16:23:58.527Z,1.40
2019-05-30T16:26:26.824Z,1.50
2019-05-30T16:28:55.118Z,1.62
2019-05-30T16:31:23.422Z,1.70
2019-05-30T16:33:51.694Z,1.95
2019-05-30T16:36:20.316Z,1.82
2019-05-30T16:38:48.704Z,1.30
2019-05-30T16:41:18.166Z,1.72
2019-05-30T16:43:46.497Z,1.72
2019-05-30T16:46:14.899Z,1.70
2019-05-30T16:48:43.118Z,3.17
2019-05-30T16:51:11.402Z,1.50
2019-05-30T16:53:39.690Z,1.47
2019-05-30T16:56:08.084Z,3.15
2019-05-30T16:58:36.325Z,1.85
2019-05-30T17:01:04.573Z,4.05
2019-05-30T17:03:32.913Z,4.40
2019-05-30T17:06:01.130Z,1.50
2019-05-30T17:08:29.533Z,1.85
2019-05-30T17:10:57.776Z,3.30
2019-05-30T17:13:26.033Z,1.82
2019-05-30T17:15:54.293Z,1.80
2019-05-30T17:18:22.633Z,2.70
2019-05-30T17:20:50.803Z,2.90
2019-05-30T17:23:19.036Z,9.08
2019-05-30T17:25:47.243Z,2.52
2019-05-30T17:28:15.380Z,2.30
2019-05-30T17:30:43.619Z,4.47
2019-05-30T17:33:11.896Z,6.17
2019-05-30T17:35:40.146Z,12.78
2019-05-30T17:38:08.397Z,5.22
2019-05-30T17:40:44.451Z,4.58
2019-05-30T17:45:33.836Z,13.85
2019-05-30T17:48:15.660Z,4.53
2019-05-30T17:50:32.058Z,4.72
2019-05-30T17:53:00.327Z,3.20
2019-05-30T17:55:28.531Z,5.75
2019-05-30T17:57:57.002Z,4.65
2019-05-30T18:00:26.443Z,7.00
2019-05-30T18:02:54.810Z,1.70
2019-05-30T18:05:24.461Z,4.40
2019-05-30T18:07:52.901Z,5.05
2019-05-30T18:10:21.368Z,1.47
2019-05-30T18:12:49.588Z,2.27
2019-05-30T18:15:19.356Z,1.90
2019-05-30T18:17:47.591Z,2.17
2019-05-30T18:20:15.968Z,1.87
2019-05-30T18:22:44.357Z,2.45
2019-05-30T18:25:14.375Z,10.35
2019-05-30T18:30:12.875Z,1.65
2019-05-30T18:32:41.028Z,2.22
2019-05-30T18:35:10.585Z,1.77
2019-05-30T18:37:39.413Z,2.12
2019-05-30T18:40:09.903Z,1.70
2019-05-30T18:42:39.192Z,2.45
2019-05-30T18:45:08.205Z,2.17
2019-05-30T18:47:36.448Z,9.87
2019-05-30T18:50:05.128Z,2.12
2019-05-30T18:52:33.423Z,2.52
2019-05-30T18:55:05.017Z,2.20
2019-05-30T18:59:59.193Z,2.15
2019-05-30T19:02:27.524Z,2.40
2019-05-30T19:04:55.936Z,5.78
2019-05-30T19:07:24.695Z,1.85
2019-05-30T19:09:53.028Z,2.12
2019-05-30T19:12:24.069Z,1.87
2019-05-30T19:17:18.592Z,2.05
2019-05-30T19:19:46.851Z,1.85
2019-05-30T19:22:15.436Z,1.75
2019-05-30T19:24:43.871Z,1.80
2019-05-30T19:27:12.277Z,1.50
2019-05-30T19:29:40.510Z,2.90
2019-05-30T19:32:08.773Z,2.47
2019-05-30T19:34:37.341Z,2.55
2019-05-30T19:37:05.541Z,3.15
2019-05-30T19:39:33.977Z,3.10
2019-05-30T19:42:02.170Z,15.05
2019-05-30T19:44:30.372Z,4.10
2019-05-30T19:46:58.543Z,4.42
2019-05-30T19:49:28.241Z,6.22
2019-05-30T19:51:56.811Z,4.97
2019-05-30T19:54:25.134Z,4.53
2019-05-30T19:56:53.638Z,5.53
2019-05-30T19:59:21.899Z,3.47
2019-05-30T20:01:50.192Z,2.67
2019-05-30T20:04:18.453Z,2.65
2019-05-30T20:06:46.843Z,2.12
2019-05-30T20:09:15.334Z,2.60
2019-05-30T20:11:43.646Z,2.37
2019-05-30T20:14:12.101Z,2.30
2019-05-30T20:16:40.444Z,2.30
2019-05-30T20:19:08.906Z,2.62
2019-05-30T20:21:37.827Z,2.45
2019-05-30T20:24:06.067Z,2.02
2019-05-30T20:26:34.490Z,2.47
2019-05-30T20:29:02.820Z,2.12
2019-05-30T20:31:31.537Z,2.08
2019-05-30T20:33:59.738Z,2.05
2019-05-30T20:36:27.994Z,1.98
2019-05-30T20:38:56.227Z,2.20
2019-05-30T20:41:24.409Z,2.00
2019-05-30T20:43:52.685Z,2.10
2019-05-30T20:46:23.937Z,2.60
2019-05-30T20:48:52.263Z,2.35
2019-05-30T20:51:21.668Z,2.10
2019-05-30T20:53:50.052Z,2.42
2019-05-30T20:56:18.317Z,2.80
2019-05-30T20:58:46.643Z,2.45
2019-05-30T21:01:15.011Z,2.70
2019-05-30T21:03:43.730Z,2.55
2019-05-30T21:06:14.059Z,2.27
2019-05-30T21:08:43.196Z,2.72
2019-05-30T21:11:12.715Z,3.20
2019-05-30T21:13:42.330Z,2.87
2019-05-30T21:16:13.194Z,3.08
2019-05-30T21:19:01.895Z,2.58
2019-05-30T21:21:30.439Z,2.08
2019-05-30T21:23:58.717Z,2.30
2019-05-30T21:26:36.689Z,2.58
2019-05-30T21:29:05.293Z,2.60
2019-05-30T21:31:33.929Z,2.35
2019-05-30T21:34:02.206Z,2.55
2019-05-30T21:36:30.523Z,2.80
2019-05-30T21:38:58.855Z,2.52
2019-05-30T21:41:27.189Z,3.12
2019-05-30T21:43:55.744Z,2.75
2019-05-30T21:46:24.103Z,2.72
2019-05-30T21:48:52.534Z,3.65
2019-05-30T21:51:20.827Z,2.12
2019-05-30T21:53:49.736Z,3.05
2019-05-30T21:56:18.175Z,3.33
2019-05-30T21:58:46.468Z,3.20
2019-05-30T22:01:34.629Z,2.87
2019-05-30T22:04:03.202Z,3.35
2019-05-30T22:06:31.939Z,3.40
2019-05-30T22:09:03.199Z,3.42
2019-05-30T22:11:30.090Z,3.00
2019-05-30T22:13:58.298Z,3.33
2019-05-30T22:16:26.498Z,3.85
2019-05-30T22:18:54.771Z,4.22
2019-05-30T22:21:23.120Z,3.87
2019-05-30T22:23:52.537Z,3.55
2019-05-30T22:26:21.202Z,4.67
2019-05-30T22:28:50.507Z,4.15
2019-05-30T22:31:19.035Z,4.12
2019-05-30T22:33:47.310Z,3.10
2019-05-30T22:36:15.808Z,3.90
2019-05-30T22:38:44.858Z,4.40
2019-05-30T22:41:13.056Z,4.62
2019-05-30T22:43:41.389Z,3.50
2019-05-30T22:46:09.905Z,3.17
2019-05-30T22:48:38.121Z,3.30
2019-05-30T22:51:06.330Z,2.95
2019-05-30T22:53:34.602Z,2.50
2019-05-30T22:56:02.972Z,3.42
2019-05-30T22:58:31.358Z,2.80
2019-05-30T23:00:59.528Z,2.55
2019-05-30T23:03:27.782Z,2.08
2019-05-30T23:05:57.377Z,2.80
2019-05-30T23:08:26.140Z,2.55
2019-05-30T23:10:55.831Z,2.72
2019-05-30T23:13:24.043Z,2.83
2019-05-30T23:15:52.848Z,2.25
2019-05-30T23:18:21.226Z,2.17
2019-05-30T23:20:50.645Z,2.20
2019-05-30T23:23:18.862Z,2.58
2019-05-30T23:25:47.222Z,2.47
2019-05-30T23:28:15.634Z,2.42
2019-05-30T23:30:43.964Z,2.10
2019-05-30T23:33:12.363Z,2.45
2019-05-30T23:35:40.492Z,2.40
2019-05-30T23:38:08.836Z,2.45
2019-05-30T23:40:37.049Z,2.30
2019-05-30T23:43:05.443Z,2.22
2019-05-30T23:45:33.872Z,2.65
2019-05-30T23:48:02.205Z,2.08
2019-05-30T23:50:30.706Z,2.15
2019-05-30T23:53:00.351Z,2.45
2019-05-30T23:55:28.827Z,2.92
2019-05-30T23:57:57.258Z,2.67
